createdAt,value
2022-12-09T00:02:05.621Z,16.48
2022-12-09T00:04:53.069Z,0.80
2022-12-09T00:07:40.473Z,0.80
2022-12-09T00:10:27.652Z,11.68
2022-12-09T00:13:14.879Z,1.90
2022-12-09T00:16:10.812Z,1.80
2022-12-09T00:18:58.553Z,1.52
2022-12-09T00:21:45.775Z,1.40
2022-12-09T00:24:32.915Z,1.85
2022-12-09T00:27:20.107Z,1.80
2022-12-09T00:30:08.327Z,2.00
2022-12-09T00:32:55.754Z,2.50
2022-12-09T00:35:42.846Z,2.80
2022-12-09T00:38:29.957Z,3.58
2022-12-09T00:41:18.047Z,3.22
2022-12-09T00:44:07.306Z,3.30
2022-12-09T00:46:54.486Z,3.50
2022-12-09T00:49:41.909Z,3.53
2022-12-09T00:52:29.007Z,3.70
2022-12-09T00:55:17.713Z,4.00
2022-12-09T00:58:05.607Z,4.32
2022-12-09T01:00:56.280Z,4.45
2022-12-09T01:06:31.567Z,4.78
2022-12-09T01:09:19.775Z,4.88
2022-12-09T01:12:07.330Z,5.00
2022-12-09T01:14:54.692Z,5.30
2022-12-09T01:17:41.806Z,5.40
2022-12-09T01:20:29.544Z,5.50
2022-12-09T01:23:19.546Z,5.57
2022-12-09T01:26:07.386Z,5.20
2022-12-09T01:28:56.994Z,6.07
2022-12-09T01:31:44.440Z,5.43
2022-12-09T01:34:31.971Z,5.15
2022-12-09T01:37:19.027Z,5.22
2022-12-09T01:40:10.548Z,5.30
2022-12-09T01:42:58.005Z,5.50
2022-12-09T01:45:46.419Z,5.20
2022-12-09T01:48:44.210Z,5.20
2022-12-09T01:51:33.481Z,5.40
2022-12-09T01:54:22.011Z,5.40
2022-12-09T01:57:10.694Z,5.20
2022-12-09T01:59:58.040Z,5.32
2022-12-09T02:02:48.283Z,5.15
2022-12-09T02:05:39.322Z,5.30
2022-12-09T02:08:26.614Z,5.00
2022-12-09T02:11:22.481Z,5.03
2022-12-09T02:14:21.953Z,5.07
2022-12-09T02:17:53.325Z,4.85
2022-12-09T02:20:45.655Z,4.50
2022-12-09T02:23:46.402Z,4.60
2022-12-09T02:26:43.910Z,4.55
2022-12-09T02:29:41.801Z,4.30
2022-12-09T02:32:59.260Z,4.20
2022-12-09T02:36:05.014Z,4.40
2022-12-09T02:38:53.156Z,4.00
2022-12-09T02:41:46.141Z,3.95
2022-12-09T02:44:35.230Z,4.32
2022-12-09T02:47:26.773Z,3.90
2022-12-09T02:50:18.982Z,3.80
2022-12-09T02:53:11.049Z,3.90
2022-12-09T02:55:59.992Z,3.70
2022-12-09T02:58:51.934Z,3.80
2022-12-09T03:02:08.270Z,3.70
2022-12-09T03:05:10.296Z,3.50
2022-12-09T03:08:20.586Z,3.72
2022-12-09T03:11:11.407Z,3.20
2022-12-09T03:14:06.848Z,3.35
2022-12-09T03:17:14.152Z,3.50
2022-12-09T03:20:30.433Z,3.60
2022-12-09T03:23:22.856Z,3.80
2022-12-09T03:26:10.229Z,3.90
2022-12-09T03:29:00.452Z,4.00
2022-12-09T03:31:49.485Z,3.70
2022-12-09T03:34:40.800Z,3.90
2022-12-09T03:37:29.094Z,6.15
2022-12-09T03:40:22.842Z,4.15
2022-12-09T03:43:19.183Z,6.40
2022-12-09T03:46:06.495Z,4.10
2022-12-09T03:48:54.234Z,4.35
2022-12-09T03:51:46.752Z,4.30
2022-12-09T03:54:42.681Z,1514.60
2022-12-09T03:57:30.352Z,9.90
2022-12-09T04:00:18.391Z,11.02
2022-12-09T04:03:07.833Z,14.38
2022-12-09T04:05:55.326Z,12.15
2022-12-09T04:08:42.919Z,12.52
2022-12-09T04:11:32.671Z,11.30
2022-12-09T04:14:20.543Z,12.07
2022-12-09T04:17:07.838Z,11.07
2022-12-09T04:19:55.641Z,20.85
2022-12-09T04:22:42.732Z,1999.90
2022-12-09T04:25:29.939Z,1999.90
2022-12-09T04:28:17.234Z,1999.90
2022-12-09T04:31:04.635Z,1999.90
2022-12-09T04:33:52.575Z,1999.90
2022-12-09T04:36:39.882Z,1999.90
2022-12-09T04:39:27.046Z,1999.90
2022-12-09T04:42:14.618Z,1999.90
2022-12-09T04:45:02.309Z,1999.90
2022-12-09T04:47:49.643Z,1999.90
2022-12-09T04:50:40.352Z,1999.90
2022-12-09T04:53:27.937Z,1999.90
2022-12-09T04:56:19.435Z,1999.90
2022-12-09T04:59:06.771Z,1999.90
2022-12-09T05:01:54.703Z,1999.90
2022-12-09T05:04:46.810Z,1999.90
2022-12-09T05:07:34.385Z,1999.90
2022-12-09T05:10:21.693Z,1999.90
2022-12-09T05:13:08.916Z,1999.90
2022-12-09T05:16:01.332Z,1999.90
2022-12-09T05:18:49.184Z,1999.90
2022-12-09T05:21:36.949Z,1999.90
2022-12-09T05:24:24.385Z,1999.90
2022-12-09T05:27:12.066Z,1999.90
2022-12-09T05:29:59.523Z,1999.90
2022-12-09T05:32:46.845Z,1999.90
2022-12-09T05:35:39.079Z,1999.90
2022-12-09T05:38:32.869Z,1999.90
2022-12-09T05:41:20.993Z,1999.90
2022-12-09T05:44:11.264Z,1999.90
2022-12-09T05:46:58.871Z,1999.90
2022-12-09T05:49:46.187Z,1999.90
2022-12-09T05:52:35.750Z,1999.90
2022-12-09T05:55:23.327Z,1999.90
2022-12-09T05:58:10.507Z,1999.90
2022-12-09T06:01:05.069Z,1999.90
2022-12-09T06:03:54.534Z,1999.90
2022-12-09T06:06:42.521Z,1999.90
2022-12-09T06:09:30.027Z,1999.90
2022-12-09T06:12:17.627Z,1999.90
2022-12-09T06:15:09.681Z,1999.90
2022-12-09T06:17:58.125Z,1999.90
2022-12-09T06:20:46.187Z,1999.90
2022-12-09T06:23:36.034Z,1999.90
2022-12-09T06:26:29.196Z,1999.90
2022-12-09T06:29:16.918Z,1999.90
2022-12-09T06:32:04.826Z,1999.90
2022-12-09T06:34:52.226Z,1999.90
2022-12-09T06:37:40.312Z,1999.90
2022-12-09T06:40:27.848Z,1999.90
2022-12-09T06:43:16.272Z,1999.90
2022-12-09T06:46:11.215Z,1999.90
2022-12-09T06:49:00.239Z,1999.90
2022-12-09T06:51:47.871Z,1999.90
2022-12-09T06:54:35.311Z,1999.90
2022-12-09T06:57:23.378Z,1999.90
2022-12-09T07:00:12.166Z,1999.90
2022-12-09T07:02:59.429Z,1999.90
2022-12-09T07:05:47.325Z,1999.90
2022-12-09T07:08:34.968Z,1999.90
2022-12-09T07:11:22.726Z,1999.90
2022-12-09T07:14:10.782Z,1999.90
2022-12-09T07:16:58.153Z,1999.90
2022-12-09T07:19:45.906Z,1999.90
2022-12-09T07:22:34.280Z,1999.90
2022-12-09T07:25:21.536Z,1999.90
2022-12-09T07:28:10.336Z,1999.90
2022-12-09T07:30:57.562Z,1999.90
2022-12-09T07:33:44.785Z,1999.90
2022-12-09T07:36:34.536Z,1999.90
2022-12-09T07:39:22.404Z,1999.90
2022-12-09T07:42:10.208Z,1999.90
2022-12-09T07:45:07.845Z,1999.90
2022-12-09T07:47:55.445Z,1999.90
2022-12-09T07:50:43.541Z,1999.90
2022-12-09T07:53:32.102Z,1999.90
2022-12-09T07:56:19.760Z,1999.90
2022-12-09T07:59:09.070Z,88.78
2022-12-09T08:02:01.057Z,1999.90
2022-12-09T08:04:51.813Z,1999.90
2022-12-09T08:07:44.283Z,1999.90
2022-12-09T08:10:32.427Z,1999.90
2022-12-09T08:13:21.117Z,1999.90
2022-12-09T08:16:10.106Z,1999.90
2022-12-09T08:18:57.953Z,1999.90
2022-12-09T08:21:49.563Z,1999.90
2022-12-09T08:24:40.180Z,1999.90
2022-12-09T08:27:28.787Z,1999.90
2022-12-09T08:30:17.240Z,1999.90
2022-12-09T08:33:05.034Z,1999.90
2022-12-09T08:35:52.372Z,1999.90
2022-12-09T08:38:40.093Z,1999.90
2022-12-09T08:41:37.600Z,1999.90
2022-12-09T08:44:25.990Z,1999.90
2022-12-09T08:47:13.927Z,1999.90
2022-12-09T08:50:01.879Z,1999.90
2022-12-09T08:52:49.229Z,1999.90
2022-12-09T08:55:39.480Z,1999.90
2022-12-09T08:58:27.148Z,1999.90
2022-12-09T09:01:16.615Z,1999.90
2022-12-09T09:04:07.653Z,1999.90
2022-12-09T09:06:57.048Z,1999.90
2022-12-09T09:09:44.715Z,1999.90
2022-12-09T09:12:34.740Z,1999.90
2022-12-09T09:15:26.387Z,1999.90
2022-12-09T09:18:15.066Z,1999.90
2022-12-09T09:21:02.657Z,1999.90
2022-12-09T09:23:50.381Z,1999.90
2022-12-09T09:26:40.761Z,1999.90
2022-12-09T09:29:28.311Z,1999.90
2022-12-09T09:32:15.718Z,1999.90
2022-12-09T09:35:03.388Z,1999.90
2022-12-09T09:37:51.932Z,1999.90
2022-12-09T09:40:41.444Z,1999.90
2022-12-09T09:43:34.924Z,1999.90
2022-12-09T09:46:35.095Z,1999.90
2022-12-09T09:49:53.760Z,2.60
2022-12-09T09:52:42.196Z,3.20
2022-12-09T09:55:40.170Z,3.22
2022-12-09T09:58:43.661Z,3.30
2022-12-09T10:01:36.748Z,3.08
2022-12-09T10:05:08.032Z,3.00
2022-12-09T10:08:33.632Z,3.47
2022-12-09T10:11:49.381Z,2.97
2022-12-09T10:15:01.728Z,3.47
2022-12-09T10:18:08.915Z,3.30
2022-12-09T10:20:56.408Z,3.50
2022-12-09T10:23:45.833Z,3.50
2022-12-09T10:26:33.599Z,3.45
2022-12-09T10:29:35.621Z,3.75
2022-12-09T10:32:27.698Z,3.30
2022-12-09T10:35:26.929Z,3.60
2022-12-09T10:38:17.586Z,3.80
2022-12-09T10:41:53.919Z,4.20
2022-12-09T10:44:41.858Z,3.90
2022-12-09T10:47:29.617Z,3.53
2022-12-09T10:50:38.073Z,3.50
2022-12-09T10:53:26.561Z,3.70
2022-12-09T10:56:24.301Z,3.53
2022-12-09T10:59:18.016Z,3.55
2022-12-09T11:02:08.910Z,3.60
2022-12-09T11:04:57.336Z,3.60
2022-12-09T11:07:50.399Z,3.38
2022-12-09T11:10:38.299Z,3.40
2022-12-09T11:13:38.522Z,3.42
2022-12-09T11:16:27.942Z,4.50
2022-12-09T11:19:16.090Z,5.22
2022-12-09T11:22:22.495Z,3.50
2022-12-09T11:25:13.938Z,3.50
2022-12-09T11:28:16.617Z,3.58
2022-12-09T11:34:20.694Z,3.60
2022-12-09T11:37:11.078Z,3.95
2022-12-09T11:39:58.193Z,3.65
2022-12-09T11:42:52.777Z,3.95
2022-12-09T11:45:40.557Z,3.50
2022-12-09T11:48:36.060Z,4.10
2022-12-09T11:51:24.506Z,4.20
2022-12-09T11:54:20.189Z,4.00
2022-12-09T11:57:21.987Z,4.55
2022-12-09T12:00:24.643Z,4.00
2022-12-09T12:03:14.792Z,4.18
2022-12-09T12:06:06.468Z,3.95
2022-12-09T12:08:59.947Z,24.10
2022-12-09T12:12:10.916Z,22.45
2022-12-09T12:15:03.402Z,23.75
2022-12-09T12:17:55.152Z,24.08
2022-12-09T12:21:30.202Z,20.90
2022-12-09T12:25:01.880Z,20.77
2022-12-09T12:28:04.013Z,18.58
2022-12-09T12:31:27.126Z,20.30
2022-12-09T12:34:25.014Z,21.33
2022-12-09T12:37:18.817Z,20.85
2022-12-09T12:40:26.573Z,18.52
2022-12-09T12:43:57.806Z,19.20
2022-12-09T12:46:57.753Z,21.27
2022-12-09T12:50:21.507Z,23.52
2022-12-09T12:53:08.606Z,20.95
2022-12-09T12:56:16.312Z,19.52
2022-12-09T12:59:31.175Z,21.77
2022-12-09T13:02:47.444Z,18.90
2022-12-09T13:05:37.892Z,25.52
2022-12-09T13:08:36.777Z,22.08
2022-12-09T13:11:31.605Z,20.42
2022-12-09T13:14:26.193Z,21.58
2022-12-09T13:17:14.057Z,19.92
2022-12-09T13:20:03.978Z,19.73
2022-12-09T13:23:02.907Z,19.30
2022-12-09T13:26:11.909Z,19.98
2022-12-09T13:29:30.037Z,19.75
2022-12-09T13:32:36.585Z,17.52
2022-12-09T13:35:51.840Z,16.80
2022-12-09T13:38:42.605Z,16.08
2022-12-09T13:41:29.708Z,15.35
2022-12-09T13:44:18.935Z,12.73
2022-12-09T13:47:26.072Z,12.57
2022-12-09T13:50:28.340Z,10.27
2022-12-09T13:53:21.597Z,9.38
2022-12-09T13:56:23.275Z,18.65
2022-12-09T13:59:29.327Z,26.52
2022-12-09T14:02:35.516Z,24.02
2022-12-09T14:05:29.022Z,26.15
2022-12-09T14:08:26.911Z,23.10
2022-12-09T14:11:40.736Z,26.40
2022-12-09T14:14:27.736Z,27.35
2022-12-09T14:17:25.920Z,24.45
2022-12-09T14:20:19.345Z,27.75
2022-12-09T14:23:06.469Z,24.35
2022-12-09T14:25:59.851Z,25.98
2022-12-09T14:28:55.299Z,24.50
2022-12-09T14:32:02.554Z,26.65
2022-12-09T14:35:20.713Z,26.70
2022-12-09T14:38:10.871Z,22.73
2022-12-09T14:41:18.322Z,22.38
2022-12-09T14:44:43.378Z,22.95
2022-12-09T14:47:33.802Z,23.58
2022-12-09T14:50:23.973Z,21.98
2022-12-09T14:53:22.878Z,24.77
2022-12-09T14:56:19.947Z,22.80
2022-12-09T14:59:18.265Z,21.40
2022-12-09T15:02:08.363Z,24.25
2022-12-09T15:04:57.173Z,26.15
2022-12-09T15:07:45.801Z,21.52
2022-12-09T15:10:38.353Z,23.30
2022-12-09T15:13:26.364Z,22.77
2022-12-09T15:16:17.130Z,22.92
2022-12-09T15:19:04.325Z,24.15
2022-12-09T15:21:52.108Z,20.08
2022-12-09T15:24:50.144Z,22.13
2022-12-09T15:27:37.912Z,24.10
2022-12-09T15:30:30.944Z,23.75
2022-12-09T15:33:19.946Z,23.85
2022-12-09T15:36:11.464Z,23.33
2022-12-09T15:39:01.287Z,26.27
2022-12-09T15:42:07.604Z,25.67
2022-12-09T15:45:23.852Z,26.13
2022-12-09T15:48:23.534Z,24.10
2022-12-09T15:51:18.485Z,23.63
2022-12-09T15:54:10.785Z,27.95
2022-12-09T15:57:02.006Z,29.40
2022-12-09T16:02:45.769Z,25.25
2022-12-09T16:05:36.012Z,29.02
2022-12-09T16:08:43.070Z,27.95
2022-12-09T16:11:41.093Z,24.58
2022-12-09T16:14:42.442Z,25.27
2022-12-09T16:20:34.870Z,21.85
2022-12-09T16:23:24.937Z,22.10
2022-12-09T16:26:20.261Z,24.67
2022-12-09T16:29:25.438Z,26.15
2022-12-09T16:32:20.245Z,25.17
2022-12-09T16:35:10.347Z,22.10
2022-12-09T16:37:57.481Z,22.45
2022-12-09T16:40:44.624Z,21.25
2022-12-09T16:43:32.905Z,23.63
2022-12-09T16:46:36.228Z,22.45
2022-12-09T16:49:23.298Z,26.42
2022-12-09T16:52:13.522Z,23.90
2022-12-09T16:55:00.593Z,23.90
2022-12-09T16:57:48.155Z,26.23
2022-12-09T17:00:35.292Z,23.67
2022-12-09T17:03:31.974Z,24.70
2022-12-09T17:06:20.611Z,25.48
2022-12-09T17:09:07.751Z,24.20
2022-12-09T17:11:54.755Z,23.02
2022-12-09T17:14:41.997Z,20.77
2022-12-09T17:17:29.223Z,21.20
2022-12-09T17:20:16.891Z,23.13
2022-12-09T17:23:04.625Z,25.05
2022-12-09T17:25:59.015Z,24.13
2022-12-09T17:28:47.620Z,25.55
2022-12-09T17:31:34.997Z,31.13
2022-12-09T17:34:22.097Z,27.15
2022-12-09T17:37:09.383Z,1999.90
2022-12-09T17:40:03.228Z,1999.90
2022-12-09T17:42:50.938Z,1999.90
2022-12-09T17:45:42.015Z,1999.90
2022-12-09T17:48:30.776Z,1999.90
2022-12-09T17:51:18.105Z,1999.90
2022-12-09T17:54:05.655Z,1999.90
2022-12-09T17:56:52.774Z,1999.90
2022-12-09T17:59:39.912Z,1999.90
2022-12-09T18:02:27.393Z,1999.90
2022-12-09T18:05:14.718Z,1999.90
2022-12-09T18:08:01.888Z,1999.90
2022-12-09T18:10:48.991Z,1999.90
2022-12-09T18:13:37.108Z,1999.90
2022-12-09T18:16:24.326Z,1999.90
2022-12-09T18:19:15.932Z,1999.90
2022-12-09T18:22:03.866Z,1999.90
2022-12-09T18:24:51.032Z,1999.90
2022-12-09T18:27:38.160Z,1999.90
2022-12-09T18:30:25.297Z,1999.90
2022-12-09T18:33:12.432Z,1999.90
2022-12-09T18:35:59.574Z,1999.90
2022-12-09T18:38:48.072Z,1999.90
2022-12-09T18:41:35.237Z,1999.90
2022-12-09T18:44:22.382Z,1999.90
2022-12-09T18:47:09.571Z,1999.90
2022-12-09T18:49:56.689Z,1999.90
2022-12-09T18:52:45.010Z,1999.90
2022-12-09T18:55:32.089Z,1999.90
2022-12-09T18:58:31.497Z,1999.90
2022-12-09T19:01:29.777Z,1999.90
2022-12-09T19:04:26.229Z,1999.90
2022-12-09T19:07:14.561Z,1999.90
2022-12-09T19:10:01.662Z,1999.90
2022-12-09T19:12:53.733Z,1999.90
2022-12-09T19:15:43.596Z,1999.90
2022-12-09T19:18:30.971Z,1999.90
2022-12-09T19:21:20.054Z,1999.90
2022-12-09T19:24:08.330Z,1999.90
2022-12-09T19:26:57.704Z,1999.90
2022-12-09T19:29:45.416Z,1999.90
2022-12-09T19:32:52.348Z,1999.90
2022-12-09T19:35:39.602Z,1999.90
2022-12-09T19:38:26.679Z,1999.90
2022-12-09T19:41:14.099Z,1999.90
2022-12-09T19:44:02.855Z,1999.90
2022-12-09T19:46:50.472Z,1999.90
2022-12-09T19:49:40.793Z,1999.90
2022-12-09T19:52:27.902Z,1999.90
2022-12-09T19:55:15.066Z,1999.90
2022-12-09T19:58:03.456Z,1999.90
2022-12-09T20:00:50.536Z,1999.90
2022-12-09T20:03:39.408Z,1999.90
2022-12-09T20:06:27.568Z,1999.90
2022-12-09T20:09:18.941Z,1999.90
2022-12-09T20:12:06.122Z,1999.90
2022-12-09T20:14:54.615Z,1999.90
2022-12-09T20:17:41.744Z,1999.90
2022-12-09T20:20:30.402Z,1999.90
2022-12-09T20:23:17.565Z,1999.90
2022-12-09T20:26:14.365Z,1999.90
2022-12-09T20:29:03.917Z,1999.90
2022-12-09T20:31:51.165Z,1999.90
2022-12-09T20:34:38.968Z,1999.90
2022-12-09T20:37:29.103Z,1999.90
2022-12-09T20:40:16.717Z,1999.90
2022-12-09T20:43:04.028Z,1999.90
2022-12-09T20:45:51.153Z,1999.90
2022-12-09T20:48:39.381Z,1999.90
2022-12-09T20:51:27.754Z,1999.90
2022-12-09T20:54:15.112Z,29.63
2022-12-09T20:57:02.351Z,1999.90
2022-12-09T20:59:49.735Z,1999.90
2022-12-09T21:02:40.013Z,1999.90
2022-12-09T21:05:27.201Z,1999.90
2022-12-09T21:08:14.685Z,1999.90
2022-12-09T21:11:09.375Z,1999.90
2022-12-09T21:14:03.920Z,1999.90
2022-12-09T21:16:51.349Z,1999.90
2022-12-09T21:19:38.504Z,1999.90
2022-12-09T21:22:26.440Z,1999.90
2022-12-09T21:25:13.857Z,1999.90
2022-12-09T21:28:00.995Z,1999.90
2022-12-09T21:30:48.616Z,1999.90
2022-12-09T21:33:37.002Z,1999.90
2022-12-09T21:36:29.459Z,1999.90
2022-12-09T21:39:17.232Z,1999.90
2022-12-09T21:42:04.717Z,1999.90
2022-12-09T21:44:52.145Z,1999.90
2022-12-09T21:47:39.622Z,1999.90
2022-12-09T21:50:26.763Z,1999.90
2022-12-09T21:53:13.900Z,1999.90
2022-12-09T21:56:05.912Z,1999.90
2022-12-09T21:58:55.885Z,1999.90
2022-12-09T22:01:43.345Z,1999.90
2022-12-09T22:04:30.415Z,1999.90
2022-12-09T22:07:18.217Z,1999.90
2022-12-09T22:10:06.168Z,1999.90
2022-12-09T22:12:54.326Z,1999.90
2022-12-09T22:15:41.472Z,1999.90
2022-12-09T22:18:28.513Z,1999.90
2022-12-09T22:21:26.562Z,1999.90
2022-12-09T22:24:15.433Z,1999.90
2022-12-09T22:27:02.510Z,1999.90
2022-12-09T22:29:50.088Z,1999.90
2022-12-09T22:32:41.477Z,1999.90
2022-12-09T22:35:30.186Z,1999.90
2022-12-09T22:38:17.538Z,1999.90
2022-12-09T22:41:09.199Z,1999.90
2022-12-09T22:43:57.083Z,1999.90
2022-12-09T22:46:44.857Z,1999.90
2022-12-09T22:49:32.075Z,1999.90
2022-12-09T22:52:19.127Z,1999.90
2022-12-09T22:55:06.592Z,1999.90
2022-12-09T22:57:53.705Z,1999.90
2022-12-09T23:00:42.148Z,1999.90
2022-12-09T23:03:29.289Z,1999.90
2022-12-09T23:06:16.490Z,1999.90
2022-12-09T23:09:04.434Z,45.50
2022-12-09T23:11:52.424Z,1999.90
2022-12-09T23:14:39.515Z,1999.90
2022-12-09T23:17:27.464Z,1999.90
2022-12-09T23:20:14.534Z,1999.90
2022-12-09T23:23:01.677Z,1999.90
2022-12-09T23:25:48.787Z,1999.90
2022-12-09T23:28:45.214Z,1999.90
2022-12-09T23:31:34.624Z,1999.90
2022-12-09T23:34:22.657Z,1999.90
2022-12-09T23:37:09.736Z,1999.90
2022-12-09T23:39:56.953Z,1999.90
2022-12-09T23:42:44.002Z,1999.90
2022-12-09T23:45:33.009Z,1999.90
2022-12-09T23:48:20.070Z,1999.90
2022-12-09T23:51:18.967Z,1999.90
2022-12-09T23:54:07.368Z,1999.90
2022-12-09T23:56:54.587Z,1999.90
2022-12-09T23:59:41.704Z,1999.90
